KNIP/NIP METAR and TAF weather

Enter ICAO airport designator
Station Type Date Time Source
KNIP METAR 2020/03/29 15:53 UTC NOAA

KNIP 291553Z VRB03KT 10SM FEW030 SCT250 28/19 A3017 RMK AO2 SLP213 T02830189


Station Type Date Time Source
KNIP Decoded METAR 2020/03/29 15:53 UTC NOAA

JACKSONVILLE NAVAL AIR STN, FL, United States (KNIP) 30-14N 81-40W 8M
Mar 29, 2020 - 11:53 AM EDT / 2020.03.29 1553 UTC
Wind: Variable at 3 MPH (3 KT):0
Visibility: 10 mile(s):0
Sky conditions: partly cloudy
Temperature: 82.9 F (28.3 C)
Dew Point: 66.0 F (18.9 C)
Relative Humidity: 56%
Pressure (altimeter): 30.17 in. Hg (1021 hPa)
ob: KNIP 291553Z VRB03KT 10SM FEW030 SCT250 28/19 A3017 RMK AO2 SLP213 T02830189
cycle: 16

Station Type Date Time Source
KNIP TAF 2020/03/29 15:12 UTC NOAA

TAF KNIP 2915/3015 19008KT 9999 SKC QNH2997INS
BECMG 2922/3000 24008KT QNH2999INS T34/2920Z T20/3011Z FN00223

Example: see airport list